createdAt,value
2023-02-11T00:01:32.327Z,6.40
2023-02-11T00:06:30.328Z,5.50
2023-02-11T00:11:30.246Z,5.90
2023-02-11T00:14:04.954Z,5.80
2023-02-11T00:19:11.820Z,6.00
2023-02-11T00:21:40.873Z,6.50
2023-02-11T00:29:05.670Z,5.80
2023-02-11T00:41:28.838Z,6.90
2023-02-11T01:06:24.810Z,7.00
2023-02-11T01:11:21.678Z,6.60
2023-02-11T01:13:50.249Z,6.00
2023-02-11T01:16:19.206Z,6.00
2023-02-11T01:36:07.840Z,6.40
2023-02-11T01:41:08.756Z,6.00
2023-02-11T01:43:43.678Z,6.30
2023-02-11T01:46:34.238Z,6.90
2023-02-11T01:49:08.245Z,6.90
2023-02-11T01:51:46.558Z,6.20
2023-02-11T01:54:41.016Z,5.90
2023-02-11T01:57:24.707Z,6.00
2023-02-11T02:00:21.538Z,6.10
2023-02-11T02:03:11.199Z,6.10
2023-02-11T02:05:56.998Z,5.90
2023-02-11T02:16:13.713Z,5.60
2023-02-11T02:19:24.865Z,7.00
2023-02-11T02:22:05.746Z,5.70
2023-02-11T02:25:14.635Z,6.10
2023-02-11T02:27:59.283Z,6.00
2023-02-11T02:31:05.617Z,6.60
2023-02-11T02:34:17.719Z,6.00
2023-02-11T02:37:08.300Z,6.00
2023-02-11T02:39:37.487Z,6.90
2023-02-11T02:44:34.139Z,6.20
2023-02-11T02:49:32.153Z,7.30
2023-02-11T02:52:14.865Z,6.20
2023-02-11T02:55:00.470Z,5.80
2023-02-11T02:58:23.037Z,5.90
2023-02-11T03:01:07.749Z,7.10
2023-02-11T03:04:01.971Z,6.10
2023-02-11T03:06:54.288Z,5.90
2023-02-11T03:11:53.469Z,6.10
2023-02-11T03:14:24.568Z,7.10
2023-02-11T03:16:54.893Z,5.60
2023-02-11T03:19:41.470Z,6.10
2023-02-11T03:22:20.639Z,6.90
2023-02-11T03:24:48.909Z,5.70
2023-02-11T03:27:43.997Z,6.30
2023-02-11T03:30:26.569Z,6.50
2023-02-11T03:33:10.686Z,6.50
2023-02-11T03:36:00.560Z,6.70
2023-02-11T03:38:37.566Z,6.30
2023-02-11T03:41:08.092Z,6.20
2023-02-11T03:43:51.171Z,6.50
2023-02-11T03:46:28.199Z,6.20
2023-02-11T03:49:03.148Z,6.90
2023-02-11T03:51:32.901Z,6.50
2023-02-11T03:54:05.997Z,6.00
2023-02-11T03:56:42.081Z,6.60
2023-02-11T04:04:06.285Z,7.20
2023-02-11T04:11:32.132Z,6.60
2023-02-11T04:18:57.587Z,5.40
2023-02-11T05:10:47.981Z,6.80
2023-02-11T05:28:04.826Z,6.20
2023-02-11T06:00:08.989Z,7.10
2023-02-11T06:27:29.696Z,5.90
2023-02-11T06:35:35.284Z,5.70
2023-02-11T07:05:11.131Z,6.60
2023-02-11T08:19:15.694Z,6.30
2023-02-11T08:21:43.780Z,7.20
2023-02-11T08:29:13.292Z,6.50
2023-02-11T08:31:47.392Z,6.30
2023-02-11T08:34:18.331Z,6.70
2023-02-11T08:36:47.506Z,6.80
2023-02-11T08:39:22.638Z,6.00
2023-02-11T08:41:54.402Z,6.70
2023-02-11T08:46:51.540Z,6.00
2023-02-11T08:54:16.255Z,6.70
2023-02-11T08:56:44.530Z,6.80
2023-02-11T08:59:15.268Z,7.20
2023-02-11T09:09:12.205Z,6.80
2023-02-11T09:11:41.426Z,7.00
2023-02-11T09:14:21.360Z,5.50
2023-02-11T09:16:51.125Z,7.20
2023-02-11T09:26:45.616Z,7.20
2023-02-11T09:34:12.138Z,7.10
2023-02-11T09:36:41.548Z,6.50
2023-02-11T09:39:17.079Z,6.60
2023-02-11T09:42:10.855Z,7.50
2023-02-11T09:44:39.735Z,7.10
2023-02-11T09:47:33.115Z,7.80
2023-02-11T09:50:24.148Z,6.30
2023-02-11T09:53:29.683Z,7.10
2023-02-11T09:56:01.847Z,6.90
2023-02-11T09:58:40.501Z,7.50
2023-02-11T10:01:35.916Z,6.30
2023-02-11T10:04:43.860Z,6.90
2023-02-11T10:08:01.698Z,7.60
2023-02-11T10:10:53.383Z,6.30
2023-02-11T10:13:44.963Z,7.70
2023-02-11T10:16:26.333Z,7.20
2023-02-11T10:19:16.805Z,7.30
2023-02-11T10:22:01.814Z,7.00
2023-02-11T10:26:58.285Z,7.20
2023-02-11T10:30:02.707Z,7.00
2023-02-11T10:32:54.843Z,7.00
2023-02-11T10:35:24.552Z,8.10
2023-02-11T10:40:29.262Z,6.50
2023-02-11T10:43:08.804Z,6.40
2023-02-11T10:48:46.544Z,8.40
2023-02-11T10:51:38.714Z,7.30
2023-02-11T10:56:52.863Z,7.20
2023-02-11T10:59:30.411Z,8.50
2023-02-11T11:02:02.458Z,7.60
2023-02-11T11:07:16.881Z,7.90
2023-02-11T11:10:07.374Z,8.20
2023-02-11T11:15:22.826Z,8.10
2023-02-11T11:18:21.006Z,7.60
2023-02-11T11:21:15.767Z,7.10
2023-02-11T11:23:55.290Z,7.50
2023-02-11T11:26:25.273Z,7.70
2023-02-11T11:29:01.785Z,8.20
2023-02-11T11:31:49.517Z,7.80
2023-02-11T11:34:40.572Z,7.30
2023-02-11T11:37:23.926Z,7.00
2023-02-11T11:40:08.800Z,8.10
2023-02-11T11:42:39.160Z,7.90
2023-02-11T11:45:15.880Z,7.30
2023-02-11T11:48:09.245Z,8.70
2023-02-11T11:51:07.827Z,8.00
2023-02-11T11:54:13.525Z,7.70
2023-02-11T11:57:00.870Z,8.00
2023-02-11T12:02:40.133Z,8.10
2023-02-11T12:08:00.616Z,8.70
2023-02-11T12:10:48.116Z,7.60
2023-02-11T12:13:40.677Z,8.20
2023-02-11T12:16:53.622Z,8.60
2023-02-11T12:23:09.428Z,9.00
2023-02-11T12:26:21.926Z,8.20
2023-02-11T12:29:19.510Z,8.40
2023-02-11T12:32:21.514Z,8.60
2023-02-11T12:37:50.192Z,8.50
2023-02-11T12:41:48.914Z,8.10
2023-02-11T12:44:59.328Z,8.60
2023-02-11T12:48:05.330Z,8.40
2023-02-11T12:50:52.990Z,8.90
2023-02-11T12:53:29.771Z,8.90
2023-02-11T12:56:12.740Z,9.60
2023-02-11T12:58:45.383Z,8.90
2023-02-11T13:01:23.855Z,9.00
2023-02-11T13:04:13.678Z,8.80
2023-02-11T13:06:52.213Z,8.30
2023-02-11T13:09:48.800Z,8.40
2023-02-11T13:15:09.885Z,8.50
2023-02-11T13:17:48.758Z,8.20
2023-02-11T13:20:37.000Z,8.90
2023-02-11T13:23:31.728Z,8.60
2023-02-11T13:26:42.976Z,9.10
2023-02-11T13:29:47.422Z,8.80
2023-02-11T13:37:30.821Z,9.00
2023-02-11T13:40:27.876Z,8.60
2023-02-11T13:43:01.807Z,9.40
2023-02-11T13:45:47.722Z,8.80
2023-02-11T13:48:24.829Z,9.40
2023-02-11T13:51:03.695Z,10.00
2023-02-11T13:53:47.744Z,8.60
2023-02-11T13:56:35.382Z,9.10
2023-02-11T13:59:07.316Z,8.80
2023-02-11T14:02:11.975Z,9.30
2023-02-11T14:05:23.180Z,8.90
2023-02-11T14:08:28.226Z,9.00
2023-02-11T14:11:12.627Z,8.70
2023-02-11T14:13:49.277Z,8.50
2023-02-11T14:16:36.385Z,9.10
2023-02-11T14:21:47.107Z,8.40
2023-02-11T14:26:56.513Z,8.70
2023-02-11T14:30:06.892Z,8.50
2023-02-11T14:32:55.467Z,9.00
2023-02-11T14:38:22.816Z,8.90
2023-02-11T14:41:28.466Z,9.10
2023-02-11T14:44:01.614Z,8.90
2023-02-11T14:46:30.693Z,8.90
2023-02-11T14:49:02.211Z,9.10
2023-02-11T14:51:39.245Z,8.90
2023-02-11T14:54:17.648Z,9.80
2023-02-11T14:59:23.315Z,8.40
2023-02-11T15:01:56.533Z,9.40
2023-02-11T15:04:36.470Z,8.80
2023-02-11T15:07:08.377Z,8.80
2023-02-11T15:09:49.442Z,8.80
2023-02-11T15:12:38.198Z,8.80
2023-02-11T15:15:06.157Z,9.00
2023-02-11T15:20:02.540Z,9.00
2023-02-11T15:22:34.018Z,9.10
2023-02-11T15:25:03.857Z,8.90
2023-02-11T15:27:44.039Z,9.20
2023-02-11T15:30:23.776Z,9.20
2023-02-11T15:32:58.781Z,8.60
2023-02-11T15:35:30.266Z,9.00
2023-02-11T15:37:59.557Z,9.30
2023-02-11T15:40:32.429Z,9.00
2023-02-11T15:43:09.722Z,8.50
2023-02-11T15:45:52.956Z,9.50
2023-02-11T15:48:32.598Z,8.70
2023-02-11T15:51:29.476Z,9.60
2023-02-11T15:54:05.796Z,9.00
2023-02-11T15:56:43.283Z,8.70
2023-02-11T15:59:25.727Z,8.60
2023-02-11T16:01:54.929Z,9.10
2023-02-11T16:04:25.610Z,10.30
2023-02-11T16:06:55.465Z,10.10
2023-02-11T16:09:36.668Z,9.20
2023-02-11T16:12:23.480Z,8.70
2023-02-11T16:19:49.655Z,8.90
2023-02-11T16:22:30.053Z,8.80
2023-02-11T16:25:00.047Z,8.80
2023-02-11T16:27:37.215Z,8.80
2023-02-11T16:30:06.584Z,9.00
2023-02-11T16:37:33.344Z,8.90
2023-02-11T16:47:28.241Z,8.60
2023-02-11T16:49:56.149Z,12.60
2023-02-11T16:57:26.998Z,8.60
2023-02-11T17:04:55.514Z,8.60
2023-02-11T17:17:16.551Z,8.80
2023-02-11T17:54:19.773Z,8.60
2023-02-11T17:59:18.355Z,8.90
2023-02-11T18:04:17.902Z,8.40
2023-02-11T18:06:46.170Z,8.50
2023-02-11T18:29:07.125Z,8.20
2023-02-11T18:31:36.251Z,9.00
2023-02-11T18:34:07.464Z,8.60
2023-02-11T18:36:35.852Z,12.10
2023-02-11T18:39:04.956Z,8.60
2023-02-11T18:56:24.584Z,8.40
2023-02-11T19:01:27.332Z,8.50
2023-02-11T19:03:58.031Z,8.60
2023-02-11T19:06:29.663Z,9.10
2023-02-11T19:09:00.818Z,8.20
2023-02-11T19:11:49.848Z,8.80
2023-02-11T19:14:34.271Z,8.90
2023-02-11T19:17:06.157Z,9.00
2023-02-11T19:19:36.285Z,8.00
2023-02-11T19:22:10.580Z,8.70
2023-02-11T19:24:42.254Z,8.70
2023-02-11T19:27:10.114Z,8.90
2023-02-11T19:29:38.332Z,8.70
2023-02-11T19:32:10.493Z,8.20
2023-02-11T19:35:03.827Z,8.80
2023-02-11T19:39:59.491Z,8.60
2023-02-11T19:44:57.145Z,8.40
2023-02-11T19:52:28.589Z,8.50
2023-02-11T20:19:37.701Z,7.90
2023-02-11T20:27:01.976Z,8.90
2023-02-11T20:34:27.468Z,8.80
2023-02-11T20:39:25.178Z,8.60
2023-02-11T20:44:22.488Z,7.70
2023-02-11T20:46:51.980Z,8.40
2023-02-11T20:49:23.782Z,8.20
2023-02-11T20:54:23.512Z,8.60
2023-02-11T21:01:56.345Z,8.40
2023-02-11T21:04:28.598Z,8.60
2023-02-11T21:07:00.543Z,8.40
2023-02-11T21:09:32.244Z,8.60
2023-02-11T21:12:01.423Z,8.40
2023-02-11T21:14:31.182Z,8.60
2023-02-11T21:24:24.762Z,9.00
2023-02-11T21:41:43.301Z,8.00
2023-02-11T21:49:08.330Z,8.40
2023-02-11T21:56:35.293Z,9.30
2023-02-11T21:59:03.314Z,8.60
2023-02-11T22:01:33.482Z,8.70
2023-02-11T22:04:08.986Z,8.40
2023-02-11T22:09:07.420Z,8.50
2023-02-11T22:11:35.569Z,7.60
2023-02-11T22:26:28.180Z,8.50
2023-02-11T22:28:57.248Z,7.90
2023-02-11T22:31:33.986Z,8.20
2023-02-11T22:36:34.678Z,7.80
2023-02-11T22:39:08.881Z,7.70
2023-02-11T22:46:34.125Z,7.50
2023-02-11T22:54:01.772Z,8.80
2023-02-11T22:56:31.843Z,8.10
2023-02-11T22:59:03.085Z,8.30
2023-02-11T23:01:31.626Z,8.60
2023-02-11T23:11:28.540Z,8.20
2023-02-11T23:16:28.687Z,7.40
2023-02-11T23:21:30.816Z,8.60
2023-02-11T23:24:06.577Z,8.50
2023-02-11T23:31:40.316Z,8.20
2023-02-11T23:34:09.437Z,8.70
2023-02-11T23:56:26.667Z,8.10
2023-02-11T23:58:57.550Z,7.20
